sensor_id;sensor_type;location;lat;lon;timestamp;P1;durP1;ratioP1;P2;durP2;ratioP2
67514;SDS011;60646;55.802;37.032;2023-02-08T00:01:20;5.50;;;2.67;;
67514;SDS011;60646;55.802;37.032;2023-02-08T00:03:47;5.70;;;3.15;;
67514;SDS011;60646;55.802;37.032;2023-02-08T00:06:14;7.78;;;2.85;;
67514;SDS011;60646;55.802;37.032;2023-02-08T00:08:40;5.40;;;2.67;;
67514;SDS011;60646;55.802;37.032;2023-02-08T00:11:06;5.15;;;2.35;;
67514;SDS011;60646;55.802;37.032;2023-02-08T00:13:35;6.82;;;2.67;;
67514;SDS011;60646;55.802;37.032;2023-02-08T00:16:01;6.10;;;2.78;;
67514;SDS011;60646;55.802;37.032;2023-02-08T00:18:27;5.63;;;2.78;;
67514;SDS011;60646;55.802;37.032;2023-02-08T00:20:53;6.63;;;2.85;;
67514;SDS011;60646;55.802;37.032;2023-02-08T00:23:20;6.10;;;3.05;;
67514;SDS011;60646;55.802;37.032;2023-02-08T00:25:45;5.82;;;2.97;;
67514;SDS011;60646;55.802;37.032;2023-02-08T00:28:12;5.85;;;2.78;;
67514;SDS011;60646;55.802;37.032;2023-02-08T00:30:40;5.72;;;2.58;;
67514;SDS011;60646;55.802;37.032;2023-02-08T00:33:06;5.55;;;2.97;;
67514;SDS011;60646;55.802;37.032;2023-02-08T00:35:32;7.53;;;2.75;;
67514;SDS011;60646;55.802;37.032;2023-02-08T00:37:58;5.38;;;2.45;;
67514;SDS011;60646;55.802;37.032;2023-02-08T00:40:25;7.05;;;2.80;;
67514;SDS011;60646;55.802;37.032;2023-02-08T00:42:51;7.75;;;3.30;;
67514;SDS011;60646;55.802;37.032;2023-02-08T00:45:17;7.38;;;3.05;;
67514;SDS011;60646;55.802;37.032;2023-02-08T00:47:43;8.27;;;3.58;;
67514;SDS011;60646;55.802;37.032;2023-02-08T00:50:09;6.70;;;3.25;;
67514;SDS011;60646;55.802;37.032;2023-02-08T00:52:35;5.22;;;2.80;;
67514;SDS011;60646;55.802;37.032;2023-02-08T00:55:03;5.88;;;2.80;;
67514;SDS011;60646;55.802;37.032;2023-02-08T00:57:33;7.30;;;3.00;;
67514;SDS011;60646;55.802;37.032;2023-02-08T00:59:59;7.22;;;3.28;;
67514;SDS011;60646;55.802;37.032;2023-02-08T01:02:25;5.82;;;2.80;;
67514;SDS011;60646;55.802;37.032;2023-02-08T01:04:51;6.45;;;3.03;;
67514;SDS011;60646;55.802;37.032;2023-02-08T01:07:16;5.88;;;2.70;;
67514;SDS011;60646;55.802;37.032;2023-02-08T01:09:42;5.72;;;3.10;;
67514;SDS011;60646;55.802;37.032;2023-02-08T01:12:28;5.25;;;2.80;;
67514;SDS011;60646;55.802;37.032;2023-02-08T01:14:54;5.40;;;2.50;;
67514;SDS011;60646;55.802;37.032;2023-02-08T01:17:38;6.35;;;2.63;;
67514;SDS011;60646;55.802;37.032;2023-02-08T01:20:04;6.00;;;2.45;;
67514;SDS011;60646;55.802;37.032;2023-02-08T01:22:30;7.25;;;2.72;;
67514;SDS011;60646;55.802;37.032;2023-02-08T01:24:56;9.30;;;2.97;;
67514;SDS011;60646;55.802;37.032;2023-02-08T01:27:22;6.35;;;2.60;;
67514;SDS011;60646;55.802;37.032;2023-02-08T01:29:48;3.67;;;2.08;;
67514;SDS011;60646;55.802;37.032;2023-02-08T01:32:14;5.00;;;2.88;;
67514;SDS011;60646;55.802;37.032;2023-02-08T01:34:39;5.97;;;3.00;;
67514;SDS011;60646;55.802;37.032;2023-02-08T01:37:05;7.45;;;2.58;;
67514;SDS011;60646;55.802;37.032;2023-02-08T01:39:31;5.10;;;2.58;;
67514;SDS011;60646;55.802;37.032;2023-02-08T01:41:57;4.07;;;2.58;;
67514;SDS011;60646;55.802;37.032;2023-02-08T01:47:29;4.28;;;2.22;;
67514;SDS011;60646;55.802;37.032;2023-02-08T01:49:55;3.47;;;2.05;;
67514;SDS011;60646;55.802;37.032;2023-02-08T01:52:22;3.72;;;2.10;;
67514;SDS011;60646;55.802;37.032;2023-02-08T01:58:05;5.63;;;2.47;;
67514;SDS011;60646;55.802;37.032;2023-02-08T02:00:34;3.90;;;1.88;;
67514;SDS011;60646;55.802;37.032;2023-02-08T02:02:59;4.53;;;2.25;;
67514;SDS011;60646;55.802;37.032;2023-02-08T02:05:29;4.80;;;2.28;;
67514;SDS011;60646;55.802;37.032;2023-02-08T02:07:59;5.78;;;2.70;;
67514;SDS011;60646;55.802;37.032;2023-02-08T02:10:29;3.85;;;2.08;;
67514;SDS011;60646;55.802;37.032;2023-02-08T02:12:57;4.43;;;2.50;;
67514;SDS011;60646;55.802;37.032;2023-02-08T02:15:28;4.75;;;2.33;;
67514;SDS011;60646;55.802;37.032;2023-02-08T02:17:54;4.32;;;2.15;;
67514;SDS011;60646;55.802;37.032;2023-02-08T02:20:48;4.60;;;2.20;;
67514;SDS011;60646;55.802;37.032;2023-02-08T02:29:34;3.45;;;1.73;;
67514;SDS011;60646;55.802;37.032;2023-02-08T02:32:23;5.90;;;2.10;;
67514;SDS011;60646;55.802;37.032;2023-02-08T02:44:34;4.20;;;1.90;;
67514;SDS011;60646;55.802;37.032;2023-02-08T02:47:01;4.80;;;2.00;;
67514;SDS011;60646;55.802;37.032;2023-02-08T02:52:24;2.75;;;1.50;;
67514;SDS011;60646;55.802;37.032;2023-02-08T02:55:11;4.32;;;2.00;;
67514;SDS011;60646;55.802;37.032;2023-02-08T02:57:41;3.85;;;2.25;;
67514;SDS011;60646;55.802;37.032;2023-02-08T03:00:09;3.45;;;1.88;;
67514;SDS011;60646;55.802;37.032;2023-02-08T03:02:36;4.63;;;2.30;;
67514;SDS011;60646;55.802;37.032;2023-02-08T03:05:02;3.63;;;1.95;;
67514;SDS011;60646;55.802;37.032;2023-02-08T03:07:53;4.43;;;1.90;;
67514;SDS011;60646;55.802;37.032;2023-02-08T03:19:06;4.25;;;2.05;;
67514;SDS011;60646;55.802;37.032;2023-02-08T03:21:42;4.60;;;2.28;;
67514;SDS011;60646;55.802;37.032;2023-02-08T03:26:44;3.60;;;1.60;;
67514;SDS011;60646;55.802;37.032;2023-02-08T03:32:06;5.05;;;1.65;;
67514;SDS011;60646;55.802;37.032;2023-02-08T03:37:29;4.13;;;2.00;;
67514;SDS011;60646;55.802;37.032;2023-02-08T03:40:06;3.67;;;1.70;;
67514;SDS011;60646;55.802;37.032;2023-02-08T03:43:15;3.15;;;1.67;;
67514;SDS011;60646;55.802;37.032;2023-02-08T03:45:45;6.15;;;2.58;;
67514;SDS011;60646;55.802;37.032;2023-02-08T03:50:45;3.78;;;1.67;;
67514;SDS011;60646;55.802;37.032;2023-02-08T03:53:14;4.00;;;2.13;;
67514;SDS011;60646;55.802;37.032;2023-02-08T03:55:44;4.47;;;2.30;;
67514;SDS011;60646;55.802;37.032;2023-02-08T03:58:31;5.32;;;2.17;;
67514;SDS011;60646;55.802;37.032;2023-02-08T04:01:08;5.85;;;2.40;;
67514;SDS011;60646;55.802;37.032;2023-02-08T04:03:40;6.18;;;2.58;;
67514;SDS011;60646;55.802;37.032;2023-02-08T04:06:08;5.05;;;2.30;;
67514;SDS011;60646;55.802;37.032;2023-02-08T04:08:34;5.68;;;2.40;;
67514;SDS011;60646;55.802;37.032;2023-02-08T04:11:00;9.13;;;3.55;;
67514;SDS011;60646;55.802;37.032;2023-02-08T04:13:26;6.03;;;2.92;;
67514;SDS011;60646;55.802;37.032;2023-02-08T04:15:51;5.25;;;2.45;;
67514;SDS011;60646;55.802;37.032;2023-02-08T04:18:17;6.57;;;3.00;;
67514;SDS011;60646;55.802;37.032;2023-02-08T04:20:43;7.28;;;2.88;;
67514;SDS011;60646;55.802;37.032;2023-02-08T04:23:09;7.85;;;2.70;;
67514;SDS011;60646;55.802;37.032;2023-02-08T04:25:34;7.32;;;2.90;;
67514;SDS011;60646;55.802;37.032;2023-02-08T04:28:00;6.75;;;2.80;;
67514;SDS011;60646;55.802;37.032;2023-02-08T04:30:26;7.68;;;3.33;;
67514;SDS011;60646;55.802;37.032;2023-02-08T04:32:51;5.43;;;2.53;;
67514;SDS011;60646;55.802;37.032;2023-02-08T04:35:17;6.53;;;2.92;;
67514;SDS011;60646;55.802;37.032;2023-02-08T04:37:43;7.78;;;3.30;;
67514;SDS011;60646;55.802;37.032;2023-02-08T04:40:09;5.20;;;2.67;;
67514;SDS011;60646;55.802;37.032;2023-02-08T04:42:35;6.10;;;2.80;;
67514;SDS011;60646;55.802;37.032;2023-02-08T04:45:01;8.15;;;3.40;;
67514;SDS011;60646;55.802;37.032;2023-02-08T04:47:30;6.80;;;3.47;;
67514;SDS011;60646;55.802;37.032;2023-02-08T04:49:55;5.85;;;3.03;;
67514;SDS011;60646;55.802;37.032;2023-02-08T04:52:21;7.38;;;3.13;;
67514;SDS011;60646;55.802;37.032;2023-02-08T04:54:47;6.53;;;3.20;;
67514;SDS011;60646;55.802;37.032;2023-02-08T04:57:13;6.88;;;2.88;;
67514;SDS011;60646;55.802;37.032;2023-02-08T04:59:39;4.28;;;2.63;;
67514;SDS011;60646;55.802;37.032;2023-02-08T05:02:05;6.95;;;3.20;;
67514;SDS011;60646;55.802;37.032;2023-02-08T05:04:30;5.13;;;2.70;;
67514;SDS011;60646;55.802;37.032;2023-02-08T05:07:15;5.35;;;2.63;;
67514;SDS011;60646;55.802;37.032;2023-02-08T05:09:41;7.55;;;2.97;;
67514;SDS011;60646;55.802;37.032;2023-02-08T05:12:07;7.45;;;3.25;;
67514;SDS011;60646;55.802;37.032;2023-02-08T05:14:32;6.57;;;3.03;;
67514;SDS011;60646;55.802;37.032;2023-02-08T05:16:58;6.60;;;3.00;;
67514;SDS011;60646;55.802;37.032;2023-02-08T05:19:25;8.00;;;3.22;;
67514;SDS011;60646;55.802;37.032;2023-02-08T05:21:50;6.18;;;3.03;;
67514;SDS011;60646;55.802;37.032;2023-02-08T05:24:16;6.63;;;3.03;;
67514;SDS011;60646;55.802;37.032;2023-02-08T05:26:42;7.28;;;3.38;;
67514;SDS011;60646;55.802;37.032;2023-02-08T05:29:08;6.10;;;2.65;;
67514;SDS011;60646;55.802;37.032;2023-02-08T05:31:34;7.20;;;3.08;;
67514;SDS011;60646;55.802;37.032;2023-02-08T05:33:59;7.22;;;3.30;;
67514;SDS011;60646;55.802;37.032;2023-02-08T05:36:25;8.52;;;3.58;;
67514;SDS011;60646;55.802;37.032;2023-02-08T05:38:51;7.32;;;3.30;;
67514;SDS011;60646;55.802;37.032;2023-02-08T05:41:17;7.38;;;2.95;;
67514;SDS011;60646;55.802;37.032;2023-02-08T05:43:43;8.65;;;3.45;;
67514;SDS011;60646;55.802;37.032;2023-02-08T05:46:10;10.00;;;3.75;;
67514;SDS011;60646;55.802;37.032;2023-02-08T05:48:36;8.48;;;3.50;;
67514;SDS011;60646;55.802;37.032;2023-02-08T05:51:02;7.97;;;3.47;;
67514;SDS011;60646;55.802;37.032;2023-02-08T05:53:28;8.05;;;3.60;;
67514;SDS011;60646;55.802;37.032;2023-02-08T05:55:55;8.30;;;2.85;;
67514;SDS011;60646;55.802;37.032;2023-02-08T05:58:21;7.43;;;3.50;;
67514;SDS011;60646;55.802;37.032;2023-02-08T06:00:47;7.72;;;3.67;;
67514;SDS011;60646;55.802;37.032;2023-02-08T06:03:13;6.75;;;3.03;;
67514;SDS011;60646;55.802;37.032;2023-02-08T06:05:39;7.35;;;3.40;;
67514;SDS011;60646;55.802;37.032;2023-02-08T06:08:06;9.95;;;4.10;;
67514;SDS011;60646;55.802;37.032;2023-02-08T06:10:32;8.73;;;4.50;;
67514;SDS011;60646;55.802;37.032;2023-02-08T06:12:58;10.95;;;5.10;;
67514;SDS011;60646;55.802;37.032;2023-02-08T06:15:24;8.82;;;4.38;;
67514;SDS011;60646;55.802;37.032;2023-02-08T06:17:50;10.10;;;3.55;;
67514;SDS011;60646;55.802;37.032;2023-02-08T06:20:16;7.40;;;3.85;;
67514;SDS011;60646;55.802;37.032;2023-02-08T06:22:41;6.50;;;3.35;;
67514;SDS011;60646;55.802;37.032;2023-02-08T06:25:07;6.57;;;3.35;;
67514;SDS011;60646;55.802;37.032;2023-02-08T06:27:33;5.82;;;2.90;;
67514;SDS011;60646;55.802;37.032;2023-02-08T06:29:59;8.88;;;3.70;;
67514;SDS011;60646;55.802;37.032;2023-02-08T06:32:26;11.80;;;4.15;;
67514;SDS011;60646;55.802;37.032;2023-02-08T06:34:52;7.57;;;3.45;;
67514;SDS011;60646;55.802;37.032;2023-02-08T06:37:17;8.95;;;3.83;;
67514;SDS011;60646;55.802;37.032;2023-02-08T06:39:43;10.27;;;3.85;;
67514;SDS011;60646;55.802;37.032;2023-02-08T06:42:10;6.53;;;3.03;;
67514;SDS011;60646;55.802;37.032;2023-02-08T06:44:38;8.02;;;3.65;;
67514;SDS011;60646;55.802;37.032;2023-02-08T06:47:04;6.80;;;3.28;;
67514;SDS011;60646;55.802;37.032;2023-02-08T06:49:30;6.90;;;2.83;;
67514;SDS011;60646;55.802;37.032;2023-02-08T06:51:56;6.68;;;3.20;;
67514;SDS011;60646;55.802;37.032;2023-02-08T06:54:22;6.57;;;3.00;;
67514;SDS011;60646;55.802;37.032;2023-02-08T06:56:48;8.98;;;3.45;;
67514;SDS011;60646;55.802;37.032;2023-02-08T06:59:13;7.57;;;3.55;;
67514;SDS011;60646;55.802;37.032;2023-02-08T07:01:39;6.60;;;3.05;;
67514;SDS011;60646;55.802;37.032;2023-02-08T07:04:05;8.05;;;3.05;;
67514;SDS011;60646;55.802;37.032;2023-02-08T07:06:31;8.65;;;3.22;;
67514;SDS011;60646;55.802;37.032;2023-02-08T07:08:58;9.05;;;3.40;;
67514;SDS011;60646;55.802;37.032;2023-02-08T07:11:26;8.02;;;2.72;;
67514;SDS011;60646;55.802;37.032;2023-02-08T07:13:52;6.82;;;3.13;;
67514;SDS011;60646;55.802;37.032;2023-02-08T07:16:19;7.32;;;3.22;;
67514;SDS011;60646;55.802;37.032;2023-02-08T07:18:45;7.53;;;3.30;;
67514;SDS011;60646;55.802;37.032;2023-02-08T07:21:11;7.53;;;3.38;;
67514;SDS011;60646;55.802;37.032;2023-02-08T07:23:37;7.72;;;2.78;;
67514;SDS011;60646;55.802;37.032;2023-02-08T07:26:05;6.72;;;3.15;;
67514;SDS011;60646;55.802;37.032;2023-02-08T07:28:32;8.63;;;3.92;;
67514;SDS011;60646;55.802;37.032;2023-02-08T07:30:58;8.40;;;3.58;;
67514;SDS011;60646;55.802;37.032;2023-02-08T07:33:24;8.85;;;3.92;;
67514;SDS011;60646;55.802;37.032;2023-02-08T07:35:50;7.55;;;3.42;;
67514;SDS011;60646;55.802;37.032;2023-02-08T07:38:16;12.43;;;4.40;;
67514;SDS011;60646;55.802;37.032;2023-02-08T07:40:43;6.57;;;2.83;;
67514;SDS011;60646;55.802;37.032;2023-02-08T07:43:08;7.38;;;3.53;;
67514;SDS011;60646;55.802;37.032;2023-02-08T07:45:46;5.90;;;2.88;;
67514;SDS011;60646;55.802;37.032;2023-02-08T07:48:12;5.47;;;2.95;;
67514;SDS011;60646;55.802;37.032;2023-02-08T07:50:37;6.32;;;3.03;;
67514;SDS011;60646;55.802;37.032;2023-02-08T07:53:21;7.47;;;2.88;;
67514;SDS011;60646;55.802;37.032;2023-02-08T07:55:47;8.27;;;3.90;;
67514;SDS011;60646;55.802;37.032;2023-02-08T07:58:12;6.72;;;3.28;;
67514;SDS011;60646;55.802;37.032;2023-02-08T08:00:38;7.82;;;3.15;;
67514;SDS011;60646;55.802;37.032;2023-02-08T08:03:04;5.88;;;2.55;;
67514;SDS011;60646;55.802;37.032;2023-02-08T08:05:30;4.30;;;2.38;;
67514;SDS011;60646;55.802;37.032;2023-02-08T08:07:56;4.93;;;2.28;;
67514;SDS011;60646;55.802;37.032;2023-02-08T08:10:21;6.13;;;2.95;;
67514;SDS011;60646;55.802;37.032;2023-02-08T08:12:49;5.90;;;3.10;;
67514;SDS011;60646;55.802;37.032;2023-02-08T08:15:15;6.30;;;3.05;;
67514;SDS011;60646;55.802;37.032;2023-02-08T08:17:42;6.57;;;3.05;;
67514;SDS011;60646;55.802;37.032;2023-02-08T08:20:08;5.72;;;2.97;;
67514;SDS011;60646;55.802;37.032;2023-02-08T08:22:54;7.05;;;2.70;;
67514;SDS011;60646;55.802;37.032;2023-02-08T08:25:19;6.80;;;2.70;;
67514;SDS011;60646;55.802;37.032;2023-02-08T08:27:45;7.22;;;3.42;;
67514;SDS011;60646;55.802;37.032;2023-02-08T08:30:12;6.25;;;2.80;;
67514;SDS011;60646;55.802;37.032;2023-02-08T08:32:40;7.70;;;2.70;;
67514;SDS011;60646;55.802;37.032;2023-02-08T08:35:06;6.28;;;2.80;;
67514;SDS011;60646;55.802;37.032;2023-02-08T08:37:32;6.28;;;2.85;;
67514;SDS011;60646;55.802;37.032;2023-02-08T08:39:58;5.15;;;3.10;;
67514;SDS011;60646;55.802;37.032;2023-02-08T08:42:24;8.20;;;3.17;;
67514;SDS011;60646;55.802;37.032;2023-02-08T08:44:51;10.05;;;3.72;;
67514;SDS011;60646;55.802;37.032;2023-02-08T08:47:17;6.35;;;3.33;;
67514;SDS011;60646;55.802;37.032;2023-02-08T08:50:02;6.30;;;3.10;;
67514;SDS011;60646;55.802;37.032;2023-02-08T08:52:28;6.47;;;2.80;;
67514;SDS011;60646;55.802;37.032;2023-02-08T08:54:54;5.95;;;2.78;;
67514;SDS011;60646;55.802;37.032;2023-02-08T08:57:20;7.10;;;2.88;;
67514;SDS011;60646;55.802;37.032;2023-02-08T08:59:45;6.10;;;2.90;;
67514;SDS011;60646;55.802;37.032;2023-02-08T09:02:12;7.68;;;3.42;;
67514;SDS011;60646;55.802;37.032;2023-02-08T09:04:39;7.55;;;3.40;;
67514;SDS011;60646;55.802;37.032;2023-02-08T09:07:06;7.65;;;3.25;;
67514;SDS011;60646;55.802;37.032;2023-02-08T09:09:33;7.53;;;3.00;;
67514;SDS011;60646;55.802;37.032;2023-02-08T09:12:00;9.25;;;3.97;;
67514;SDS011;60646;55.802;37.032;2023-02-08T09:14:26;8.45;;;3.45;;
67514;SDS011;60646;55.802;37.032;2023-02-08T09:16:52;8.27;;;3.75;;
67514;SDS011;60646;55.802;37.032;2023-02-08T09:19:18;7.93;;;3.30;;
67514;SDS011;60646;55.802;37.032;2023-02-08T09:21:44;9.38;;;4.10;;
67514;SDS011;60646;55.802;37.032;2023-02-08T09:24:10;8.48;;;3.58;;
67514;SDS011;60646;55.802;37.032;2023-02-08T09:26:36;7.43;;;3.30;;
67514;SDS011;60646;55.802;37.032;2023-02-08T09:29:03;7.47;;;3.45;;
67514;SDS011;60646;55.802;37.032;2023-02-08T09:31:30;7.10;;;3.20;;
67514;SDS011;60646;55.802;37.032;2023-02-08T09:34:02;6.97;;;3.70;;
67514;SDS011;60646;55.802;37.032;2023-02-08T09:36:30;7.07;;;3.15;;
67514;SDS011;60646;55.802;37.032;2023-02-08T09:38:59;7.45;;;3.10;;
67514;SDS011;60646;55.802;37.032;2023-02-08T09:50:08;7.30;;;3.25;;
67514;SDS011;60646;55.802;37.032;2023-02-08T09:52:40;7.40;;;3.25;;
67514;SDS011;60646;55.802;37.032;2023-02-08T09:58:00;6.70;;;2.90;;
67514;SDS011;60646;55.802;37.032;2023-02-08T10:00:38;8.25;;;3.50;;
67514;SDS011;60646;55.802;37.032;2023-02-08T10:03:08;5.63;;;2.95;;
67514;SDS011;60646;55.802;37.032;2023-02-08T10:05:44;9.00;;;2.65;;
67514;SDS011;60646;55.802;37.032;2023-02-08T10:08:10;8.02;;;3.03;;
67514;SDS011;60646;55.802;37.032;2023-02-08T10:15:52;7.35;;;3.42;;
67514;SDS011;60646;55.802;37.032;2023-02-08T10:27:01;7.22;;;2.88;;
67514;SDS011;60646;55.802;37.032;2023-02-08T10:29:45;10.25;;;3.42;;
67514;SDS011;60646;55.802;37.032;2023-02-08T10:34:57;6.07;;;3.08;;
67514;SDS011;60646;55.802;37.032;2023-02-08T10:37:31;7.18;;;3.08;;
67514;SDS011;60646;55.802;37.032;2023-02-08T10:42:54;3.88;;;2.13;;
67514;SDS011;60646;55.802;37.032;2023-02-08T10:45:31;5.53;;;2.88;;
67514;SDS011;60646;55.802;37.032;2023-02-08T10:48:08;5.50;;;2.40;;
67514;SDS011;60646;55.802;37.032;2023-02-08T10:50:40;5.88;;;2.13;;
67514;SDS011;60646;55.802;37.032;2023-02-08T10:53:11;4.15;;;2.42;;
67514;SDS011;60646;55.802;37.032;2023-02-08T10:55:41;5.97;;;2.70;;
67514;SDS011;60646;55.802;37.032;2023-02-08T10:58:12;7.00;;;2.88;;
67514;SDS011;60646;55.802;37.032;2023-02-08T11:00:41;4.63;;;2.33;;
67514;SDS011;60646;55.802;37.032;2023-02-08T11:03:22;4.45;;;2.22;;
67514;SDS011;60646;55.802;37.032;2023-02-08T11:05:53;4.40;;;2.33;;
67514;SDS011;60646;55.802;37.032;2023-02-08T11:08:21;4.55;;;2.53;;
67514;SDS011;60646;55.802;37.032;2023-02-08T11:10:54;4.63;;;2.30;;
67514;SDS011;60646;55.802;37.032;2023-02-08T11:16:04;5.03;;;2.20;;
67514;SDS011;60646;55.802;37.032;2023-02-08T11:18:49;3.90;;;1.90;;
67514;SDS011;60646;55.802;37.032;2023-02-08T11:21:22;4.03;;;2.13;;
67514;SDS011;60646;55.802;37.032;2023-02-08T11:23:51;5.25;;;2.63;;
67514;SDS011;60646;55.802;37.032;2023-02-08T11:26:32;57.13;;;23.73;;
67514;SDS011;60646;55.802;37.032;2023-02-08T11:32:00;9.50;;;4.97;;
67514;SDS011;60646;55.802;37.032;2023-02-08T11:36:55;12.90;;;9.25;;
67514;SDS011;60646;55.802;37.032;2023-02-08T11:40:05;5.88;;;3.10;;
67514;SDS011;60646;55.802;37.032;2023-02-08T11:42:20;8.45;;;4.20;;
67514;SDS011;60646;55.802;37.032;2023-02-08T11:44:49;13.07;;;10.07;;
67514;SDS011;60646;55.802;37.032;2023-02-08T11:47:17;5.32;;;3.47;;
67514;SDS011;60646;55.802;37.032;2023-02-08T11:49:52;7.18;;;4.75;;
67514;SDS011;60646;55.802;37.032;2023-02-08T11:54:49;11.68;;;8.23;;
67514;SDS011;60646;55.802;37.032;2023-02-08T11:57:16;12.35;;;8.30;;
67514;SDS011;60646;55.802;37.032;2023-02-08T11:59:44;10.77;;;8.57;;
67514;SDS011;60646;55.802;37.032;2023-02-08T12:02:25;24.23;;;15.55;;
67514;SDS011;60646;55.802;37.032;2023-02-08T12:05:11;18.98;;;9.73;;
67514;SDS011;60646;55.802;37.032;2023-02-08T12:07:45;10.55;;;4.93;;
67514;SDS011;60646;55.802;37.032;2023-02-08T12:13:09;6.65;;;2.92;;
67514;SDS011;60646;55.802;37.032;2023-02-08T12:16:02;6.90;;;5.63;;
67514;SDS011;60646;55.802;37.032;2023-02-08T12:21:21;39.22;;;24.80;;
67514;SDS011;60646;55.802;37.032;2023-02-08T12:23:51;28.92;;;14.73;;
67514;SDS011;60646;55.802;37.032;2023-02-08T12:32:27;31.63;;;25.17;;
67514;SDS011;60646;55.802;37.032;2023-02-08T12:40:52;46.35;;;23.35;;
67514;SDS011;60646;55.802;37.032;2023-02-08T12:43:42;33.70;;;18.83;;
67514;SDS011;60646;55.802;37.032;2023-02-08T12:48:59;23.17;;;11.57;;
67514;SDS011;60646;55.802;37.032;2023-02-08T12:51:53;35.15;;;14.63;;
67514;SDS011;60646;55.802;37.032;2023-02-08T12:54:35;23.17;;;9.40;;
67514;SDS011;60646;55.802;37.032;2023-02-08T12:57:06;16.95;;;6.97;;
67514;SDS011;60646;55.802;37.032;2023-02-08T12:59:40;10.98;;;4.45;;
67514;SDS011;60646;55.802;37.032;2023-02-08T13:02:27;6.88;;;2.80;;
67514;SDS011;60646;55.802;37.032;2023-02-08T13:04:57;21.73;;;9.38;;
67514;SDS011;60646;55.802;37.032;2023-02-08T13:07:30;24.33;;;14.43;;
67514;SDS011;60646;55.802;37.032;2023-02-08T13:12:53;17.27;;;7.65;;
67514;SDS011;60646;55.802;37.032;2023-02-08T13:15:23;13.50;;;6.70;;
67514;SDS011;60646;55.802;37.032;2023-02-08T13:18:04;15.30;;;7.78;;
67514;SDS011;60646;55.802;37.032;2023-02-08T13:23:26;11.95;;;6.82;;
67514;SDS011;60646;55.802;37.032;2023-02-08T13:25:57;13.15;;;7.03;;
67514;SDS011;60646;55.802;37.032;2023-02-08T13:28:26;10.90;;;5.95;;
67514;SDS011;60646;55.802;37.032;2023-02-08T13:31:03;6.10;;;3.60;;
67514;SDS011;60646;55.802;37.032;2023-02-08T13:33:44;13.43;;;5.25;;
67514;SDS011;60646;55.802;37.032;2023-02-08T13:36:20;7.72;;;3.78;;
67514;SDS011;60646;55.802;37.032;2023-02-08T13:38:53;12.45;;;5.05;;
67514;SDS011;60646;55.802;37.032;2023-02-08T13:41:24;8.90;;;4.18;;
67514;SDS011;60646;55.802;37.032;2023-02-08T13:44:06;13.80;;;5.45;;
67514;SDS011;60646;55.802;37.032;2023-02-08T13:58:03;24.75;;;7.60;;
67514;SDS011;60646;55.802;37.032;2023-02-08T14:03:22;23.95;;;6.75;;
67514;SDS011;60646;55.802;37.032;2023-02-08T14:11:19;15.20;;;4.13;;
67514;SDS011;60646;55.802;37.032;2023-02-08T14:19:54;19.30;;;6.65;;
67514;SDS011;60646;55.802;37.032;2023-02-08T14:22:35;12.13;;;4.10;;
67514;SDS011;60646;55.802;37.032;2023-02-08T14:25:26;8.38;;;3.65;;
67514;SDS011;60646;55.802;37.032;2023-02-08T14:28:00;8.98;;;3.17;;
67514;SDS011;60646;55.802;37.032;2023-02-08T14:30:30;3.95;;;1.95;;
67514;SDS011;60646;55.802;37.032;2023-02-08T14:35:27;3.65;;;2.13;;
67514;SDS011;60646;55.802;37.032;2023-02-08T14:40:56;6.15;;;2.35;;
67514;SDS011;60646;55.802;37.032;2023-02-08T14:43:36;4.60;;;2.10;;
67514;SDS011;60646;55.802;37.032;2023-02-08T14:49:16;3.58;;;2.00;;
67514;SDS011;60646;55.802;37.032;2023-02-08T14:51:52;4.10;;;2.08;;
67514;SDS011;60646;55.802;37.032;2023-02-08T14:54:24;2.60;;;1.80;;
67514;SDS011;60646;55.802;37.032;2023-02-08T14:56:57;6.53;;;2.10;;
67514;SDS011;60646;55.802;37.032;2023-02-08T14:59:27;4.45;;;1.95;;
67514;SDS011;60646;55.802;37.032;2023-02-08T15:01:59;3.67;;;1.80;;
67514;SDS011;60646;55.802;37.032;2023-02-08T15:04:27;8.27;;;2.13;;
67514;SDS011;60646;55.802;37.032;2023-02-08T15:06:58;4.97;;;2.22;;
67514;SDS011;60646;55.802;37.032;2023-02-08T15:09:39;3.90;;;2.10;;
67514;SDS011;60646;55.802;37.032;2023-02-08T15:12:19;7.80;;;2.47;;
67514;SDS011;60646;55.802;37.032;2023-02-08T15:14:52;4.28;;;1.90;;
67514;SDS011;60646;55.802;37.032;2023-02-08T15:17:23;3.83;;;2.00;;
67514;SDS011;60646;55.802;37.032;2023-02-08T15:19:51;4.63;;;1.90;;
67514;SDS011;60646;55.802;37.032;2023-02-08T15:22:25;5.13;;;2.17;;
67514;SDS011;60646;55.802;37.032;2023-02-08T15:25:27;5.85;;;2.00;;
67514;SDS011;60646;55.802;37.032;2023-02-08T15:28:00;4.05;;;1.95;;
67514;SDS011;60646;55.802;37.032;2023-02-08T15:31:02;8.90;;;2.90;;
67514;SDS011;60646;55.802;37.032;2023-02-08T15:33:30;3.13;;;1.77;;
67514;SDS011;60646;55.802;37.032;2023-02-08T15:36:01;5.47;;;2.20;;
67514;SDS011;60646;55.802;37.032;2023-02-08T15:38:31;7.65;;;3.13;;
67514;SDS011;60646;55.802;37.032;2023-02-08T15:43:34;8.70;;;3.50;;
67514;SDS011;60646;55.802;37.032;2023-02-08T15:46:02;11.55;;;4.53;;
67514;SDS011;60646;55.802;37.032;2023-02-08T15:48:30;11.65;;;4.20;;
67514;SDS011;60646;55.802;37.032;2023-02-08T15:50:58;7.75;;;3.35;;
67514;SDS011;60646;55.802;37.032;2023-02-08T15:53:25;7.20;;;3.00;;
67514;SDS011;60646;55.802;37.032;2023-02-08T15:55:53;4.35;;;2.20;;
67514;SDS011;60646;55.802;37.032;2023-02-08T15:58:26;6.68;;;2.72;;
67514;SDS011;60646;55.802;37.032;2023-02-08T16:00:56;10.52;;;3.53;;
67514;SDS011;60646;55.802;37.032;2023-02-08T16:03:24;5.80;;;2.30;;
67514;SDS011;60646;55.802;37.032;2023-02-08T16:05:59;6.72;;;2.70;;
67514;SDS011;60646;55.802;37.032;2023-02-08T16:08:28;5.35;;;1.95;;
67514;SDS011;60646;55.802;37.032;2023-02-08T16:13:38;5.32;;;2.13;;
67514;SDS011;60646;55.802;37.032;2023-02-08T16:16:18;6.20;;;2.70;;
67514;SDS011;60646;55.802;37.032;2023-02-08T16:23:50;5.28;;;2.25;;
67514;SDS011;60646;55.802;37.032;2023-02-08T16:26:20;4.90;;;2.15;;
67514;SDS011;60646;55.802;37.032;2023-02-08T16:28:59;3.72;;;2.20;;
67514;SDS011;60646;55.802;37.032;2023-02-08T16:31:27;5.75;;;2.83;;
67514;SDS011;60646;55.802;37.032;2023-02-08T16:34:04;5.80;;;2.28;;
67514;SDS011;60646;55.802;37.032;2023-02-08T16:36:40;4.47;;;2.53;;
67514;SDS011;60646;55.802;37.032;2023-02-08T16:46:49;3.35;;;1.90;;
67514;SDS011;60646;55.802;37.032;2023-02-08T16:49:16;2.95;;;1.65;;
67514;SDS011;60646;55.802;37.032;2023-02-08T16:51:41;3.20;;;2.00;;
67514;SDS011;60646;55.802;37.032;2023-02-08T16:54:10;3.40;;;1.73;;
67514;SDS011;60646;55.802;37.032;2023-02-08T16:56:38;4.15;;;1.92;;
67514;SDS011;60646;55.802;37.032;2023-02-08T16:59:06;19.52;;;10.18;;
67514;SDS011;60646;55.802;37.032;2023-02-08T17:01:32;5.63;;;2.78;;
67514;SDS011;60646;55.802;37.032;2023-02-08T17:03:58;4.22;;;2.20;;
67514;SDS011;60646;55.802;37.032;2023-02-08T17:06:29;3.50;;;1.85;;
67514;SDS011;60646;55.802;37.032;2023-02-08T17:09:00;4.32;;;1.90;;
67514;SDS011;60646;55.802;37.032;2023-02-08T17:11:28;3.63;;;1.88;;
67514;SDS011;60646;55.802;37.032;2023-02-08T17:13:54;4.15;;;1.88;;
67514;SDS011;60646;55.802;37.032;2023-02-08T17:16:22;6.63;;;1.90;;
67514;SDS011;60646;55.802;37.032;2023-02-08T17:18:49;4.00;;;1.60;;
67514;SDS011;60646;55.802;37.032;2023-02-08T17:21:15;4.20;;;1.83;;
67514;SDS011;60646;55.802;37.032;2023-02-08T17:23:41;3.53;;;1.80;;
67514;SDS011;60646;55.802;37.032;2023-02-08T17:26:18;3.15;;;1.67;;
67514;SDS011;60646;55.802;37.032;2023-02-08T17:28:55;2.97;;;1.58;;
67514;SDS011;60646;55.802;37.032;2023-02-08T17:31:23;2.72;;;1.80;;
67514;SDS011;60646;55.802;37.032;2023-02-08T17:33:49;3.30;;;1.80;;